Time;durP1;ratioP1;P1;durP2;ratioP2;P2;SDS_P1;SDS_P2;PMS_P1;PMS_P2;Temp;Humidity;BMP_temperature;BMP_pressure;BME280_temperature;BME280_humidity;BME280_pressure;Samples;Min_cycle;Max_cycle;Signal;HPM_P1;HPM_P2
2024/01/21 00:01:03;;;;;;;0.30;0.30;;;;;;;;;;6242707;28;20392;-84
2024/01/21 00:04:03;;;;;;;0.20;0.20;;;;;;;;;;6245003;28;20057;-83
2024/01/21 00:07:03;;;;;;;0.30;0.30;;;;;;;;;;6252906;28;20522;-84
2024/01/21 00:10:04;;;;;;;0.20;0.20;;;;;;;;;;6255144;28;20048;-83
2024/01/21 00:13:05;;;;;;;0.30;0.30;;;;;;;;;;6245098;28;20104;-83
2024/01/21 00:16:05;;;;;;;0.30;0.30;;;;;;;;;;6252909;28;20021;-80
2024/01/21 00:19:06;;;;;;;0.30;0.30;;;;;;;;;;6249778;28;20013;-80
2024/01/21 00:22:06;;;;;;;0.30;0.30;;;;;;;;;;6245911;28;20017;-80
2024/01/21 00:25:09;;;;;;;0.30;0.30;;;;;;;;;;6236617;28;20059;-80
2024/01/21 00:28:09;;;;;;;0.30;0.30;;;;;;;;;;6254049;28;20125;-80
2024/01/21 00:31:09;;;;;;;0.30;0.30;;;;;;;;;;6246134;28;20022;-79
2024/01/21 00:34:09;;;;;;;0.30;0.30;;;;;;;;;;6227571;28;20022;-80
2024/01/21 00:37:10;;;;;;;0.30;0.30;;;;;;;;;;6245437;28;20071;-79
2024/01/21 00:40:10;;;;;;;0.20;0.20;;;;;;;;;;6245746;28;20104;-79
2024/01/21 00:43:10;;;;;;;0.30;0.30;;;;;;;;;;6259393;28;20034;-79
2024/01/21 00:46:11;;;;;;;0.30;0.30;;;;;;;;;;6231403;28;20026;-83
2024/01/21 00:49:11;;;;;;;0.20;0.20;;;;;;;;;;6232783;28;20053;-84
2024/01/21 00:52:11;;;;;;;0.20;0.20;;;;;;;;;;6242586;28;20483;-84
2024/01/21 00:55:12;;;;;;;0.30;0.30;;;;;;;;;;6254735;28;20444;-84
2024/01/21 00:58:12;;;;;;;0.20;0.20;;;;;;;;;;6228201;28;20476;-84
2024/01/21 01:01:12;;;;;;;0.30;0.30;;;;;;;;;;6244793;28;20601;-84
2024/01/21 01:04:13;;;;;;;0.30;0.30;;;;;;;;;;6242941;28;20543;-84
2024/01/21 01:07:14;;;;;;;0.20;0.20;;;;;;;;;;6244927;28;20072;-84
2024/01/21 01:10:15;;;;;;;0.20;0.20;;;;;;;;;;6244666;28;20427;-84
2024/01/21 01:13:16;;;;;;;0.20;0.20;;;;;;;;;;6244678;28;20112;-84
2024/01/21 01:16:16;;;;;;;0.30;0.30;;;;;;;;;;6242892;28;20029;-84
2024/01/21 01:19:16;;;;;;;0.30;0.30;;;;;;;;;;6226206;28;20006;-84
2024/01/21 01:22:17;;;;;;;0.27;0.27;;;;;;;;;;6242927;28;20010;-84
2024/01/21 01:25:17;;;;;;;0.33;0.33;;;;;;;;;;6240508;28;20021;-81
2024/01/21 01:28:17;;;;;;;0.30;0.30;;;;;;;;;;6242235;28;20361;-80
2024/01/21 01:31:18;;;;;;;0.20;0.20;;;;;;;;;;6244480;28;20095;-80
2024/01/21 01:34:19;;;;;;;0.27;0.27;;;;;;;;;;6244006;28;20029;-80
2024/01/21 01:37:19;;;;;;;0.30;0.30;;;;;;;;;;6243887;28;20049;-80
2024/01/21 01:40:20;;;;;;;0.20;0.20;;;;;;;;;;6226407;28;20337;-80
2024/01/21 01:43:20;;;;;;;0.20;0.20;;;;;;;;;;6257677;28;20066;-80
2024/01/21 01:46:20;;;;;;;0.23;0.23;;;;;;;;;;6257308;28;20021;-80
2024/01/21 01:49:22;;;;;;;0.20;0.20;;;;;;;;;;6243927;28;20121;-80
2024/01/21 01:52:22;;;;;;;0.20;0.20;;;;;;;;;;6226049;28;20022;-80
2024/01/21 01:55:23;;;;;;;0.20;0.20;;;;;;;;;;6243423;28;20245;-80
2024/01/21 01:58:26;;;;;;;0.30;0.30;;;;;;;;;;6243703;28;20491;-80
2024/01/21 02:01:27;;;;;;;0.20;0.20;;;;;;;;;;6243419;28;20022;-80
2024/01/21 02:04:28;;;;;;;0.30;0.30;;;;;;;;;;6225792;28;20026;-80
2024/01/21 02:07:28;;;;;;;0.30;0.30;;;;;;;;;;6242929;28;20041;-80
2024/01/21 02:10:29;;;;;;;0.30;0.30;;;;;;;;;;6243099;28;20475;-80
2024/01/21 02:13:29;;;;;;;0.30;0.30;;;;;;;;;;6241567;28;20025;-80
2024/01/21 02:16:30;;;;;;;0.20;0.20;;;;;;;;;;6256532;28;20450;-80
2024/01/21 02:19:30;;;;;;;0.30;0.30;;;;;;;;;;6242473;28;20577;-80
2024/01/21 02:22:32;;;;;;;0.30;0.30;;;;;;;;;;6225005;28;20175;-80
2024/01/21 02:25:32;;;;;;;;;;;;;;;;;;6225243;28;20032;-80
2024/01/21 02:28:32;;;;;;;0.20;0.20;;;;;;;;;;6225148;28;19905;-80
2024/01/21 02:31:32;;;;;;;0.27;0.27;;;;;;;;;;6224252;28;20522;-81
2024/01/21 02:34:33;;;;;;;0.30;0.30;;;;;;;;;;6242727;28;20029;-81
2024/01/21 02:37:33;;;;;;;0.30;0.30;;;;;;;;;;6242528;28;20843;-84
2024/01/21 02:40:34;;;;;;;0.30;0.30;;;;;;;;;;6242445;28;20029;-84
2024/01/21 02:43:34;;;;;;;0.20;0.20;;;;;;;;;;6243390;28;20031;-84
2024/01/21 02:46:34;;;;;;;0.30;0.30;;;;;;;;;;6241956;28;20945;-85
2024/01/21 02:49:35;;;;;;;0.37;0.37;;;;;;;;;;6222376;28;20558;-85
2024/01/21 02:52:35;;;;;;;0.30;0.30;;;;;;;;;;6251448;28;20096;-84
2024/01/21 02:55:35;;;;;;;0.27;0.27;;;;;;;;;;6257860;28;20107;-84
2024/01/21 02:58:35;;;;;;;0.20;0.20;;;;;;;;;;6248449;28;20013;-84
2024/01/21 03:01:36;;;;;;;0.20;0.20;;;;;;;;;;6238371;28;20021;-85
2024/01/21 03:04:36;;;;;;;0.30;0.30;;;;;;;;;;6247375;28;20470;-84
2024/01/21 03:07:36;;;;;;;0.30;0.30;;;;;;;;;;6251306;28;20392;-84
2024/01/21 03:10:36;;;;;;;0.20;0.20;;;;;;;;;;6229855;28;20033;-85
2024/01/21 03:13:36;;;;;;;0.30;0.30;;;;;;;;;;6242060;28;20104;-84
2024/01/21 03:16:37;;;;;;;0.20;0.20;;;;;;;;;;6254392;28;20025;-84
2024/01/21 03:19:37;;;;;;;0.20;0.20;;;;;;;;;;6242343;28;20104;-82
2024/01/21 03:22:37;;;;;;;0.30;0.30;;;;;;;;;;6249176;28;20014;-82
2024/01/21 03:25:37;;;;;;;0.20;0.20;;;;;;;;;;6241701;28;20380;-82
2024/01/21 03:28:38;;;;;;;0.30;0.30;;;;;;;;;;6241250;28;20017;-83
2024/01/21 03:31:38;;;;;;;0.30;0.30;;;;;;;;;;6242042;28;20101;-83
2024/01/21 03:34:42;;;;;;;0.30;0.30;;;;;;;;;;6240301;28;20099;-83
2024/01/21 03:37:42;;;;;;;0.20;0.20;;;;;;;;;;6241611;28;20025;-83
2024/01/21 03:40:42;;;;;;;0.30;0.30;;;;;;;;;;6234761;28;20426;-83
2024/01/21 03:43:43;;;;;;;0.20;0.20;;;;;;;;;;6227119;28;20026;-83
2024/01/21 03:46:43;;;;;;;0.30;0.30;;;;;;;;;;6228649;28;20072;-80
2024/01/21 03:49:43;;;;;;;0.20;0.20;;;;;;;;;;6228807;28;20026;-80
2024/01/21 03:52:44;;;;;;;0.30;0.30;;;;;;;;;;6235655;28;20082;-80
2024/01/21 03:55:44;;;;;;;0.23;0.23;;;;;;;;;;6252749;28;20056;-80
2024/01/21 03:58:45;;;;;;;0.30;0.30;;;;;;;;;;6240714;28;20455;-79
2024/01/21 04:01:45;;;;;;;0.30;0.30;;;;;;;;;;6246188;28;20021;-79
2024/01/21 04:04:45;;;;;;;0.20;0.20;;;;;;;;;;6246214;28;20133;-79
2024/01/21 04:07:45;;;;;;;0.20;0.20;;;;;;;;;;6244579;28;20553;-79
2024/01/21 04:10:47;;;;;;;0.30;0.30;;;;;;;;;;6240271;28;20064;-79
2024/01/21 04:13:47;;;;;;;0.20;0.20;;;;;;;;;;6245356;28;20079;-79
2024/01/21 04:16:48;;;;;;;0.20;0.20;;;;;;;;;;6245298;28;20369;-82
2024/01/21 04:19:48;;;;;;;0.20;0.20;;;;;;;;;;6246459;28;20032;-81
2024/01/21 04:22:49;;;;;;;0.20;0.20;;;;;;;;;;6246331;28;20443;-82
2024/01/21 04:25:50;;;;;;;0.20;0.20;;;;;;;;;;6239665;28;20040;-82
2024/01/21 04:28:50;;;;;;;0.20;0.20;;;;;;;;;;6243899;28;20025;-84
2024/01/21 04:31:50;;;;;;;0.27;0.27;;;;;;;;;;6234327;28;20472;-84
2024/01/21 04:34:51;;;;;;;0.30;0.30;;;;;;;;;;6245485;28;20032;-84
2024/01/21 04:37:51;;;;;;;0.30;0.30;;;;;;;;;;6245549;28;20025;-84
2024/01/21 04:40:55;;;;;;;0.20;0.20;;;;;;;;;;6251849;28;20492;-84
2024/01/21 04:43:57;;;;;;;0.20;0.20;;;;;;;;;;6246089;28;20467;-84
2024/01/21 04:46:58;;;;;;;0.30;0.30;;;;;;;;;;6240863;28;20052;-84
2024/01/21 04:49:58;;;;;;;0.33;0.33;;;;;;;;;;6226554;28;20026;-84
2024/01/21 04:52:58;;;;;;;0.20;0.20;;;;;;;;;;6245289;28;20476;-83
2024/01/21 04:55:59;;;;;;;0.20;0.20;;;;;;;;;;6235217;28;20563;-81
2024/01/21 04:58:59;;;;;;;0.23;0.23;;;;;;;;;;6227088;28;20471;-81
2024/01/21 05:01:59;;;;;;;0.20;0.20;;;;;;;;;;6244797;28;20017;-81
2024/01/21 05:04:59;;;;;;;0.20;0.20;;;;;;;;;;6260082;28;20029;-81
2024/01/21 05:08:00;;;;;;;0.20;0.20;;;;;;;;;;6245300;28;20479;-81
2024/01/21 05:11:00;;;;;;;0.30;0.30;;;;;;;;;;6244972;28;20027;-81
2024/01/21 05:14:01;;;;;;;0.30;0.30;;;;;;;;;;6245355;28;20018;-81
2024/01/21 05:17:01;;;;;;;0.30;0.30;;;;;;;;;;6244877;28;20040;-81
2024/01/21 05:20:01;;;;;;;0.30;0.30;;;;;;;;;;6245077;28;20019;-81
2024/01/21 05:23:02;;;;;;;0.20;0.20;;;;;;;;;;6234794;28;20017;-81
2024/01/21 05:26:02;;;;;;;0.20;0.20;;;;;;;;;;6234554;28;20022;-80
2024/01/21 05:29:02;;;;;;;0.30;0.30;;;;;;;;;;6237019;28;20111;-80
2024/01/21 05:32:03;;;;;;;0.30;0.30;;;;;;;;;;6215097;28;20018;-80
2024/01/21 05:35:03;;;;;;;0.27;0.27;;;;;;;;;;6226228;28;20030;-80
2024/01/21 05:38:05;;;;;;;0.30;0.30;;;;;;;;;;6236374;28;20037;-80
2024/01/21 05:41:05;;;;;;;0.30;0.30;;;;;;;;;;6221954;28;20484;-80
2024/01/21 05:44:05;;;;;;;0.30;0.30;;;;;;;;;;6239508;28;20121;-80
2024/01/21 05:47:05;;;;;;;0.30;0.30;;;;;;;;;;6243717;28;20124;-79
2024/01/21 05:50:06;;;;;;;0.20;0.20;;;;;;;;;;6225381;28;20022;-80
2024/01/21 05:53:07;;;;;;;0.20;0.20;;;;;;;;;;6236968;28;20446;-80
2024/01/21 05:56:07;;;;;;;0.20;0.20;;;;;;;;;;6232118;28;20084;-80
2024/01/21 05:59:07;;;;;;;0.20;0.20;;;;;;;;;;6225229;28;20041;-80
2024/01/21 06:02:10;;;;;;;0.30;0.30;;;;;;;;;;6225069;28;20026;-81
2024/01/21 06:05:10;;;;;;;0.30;0.30;;;;;;;;;;6243504;28;20408;-84
2024/01/21 06:08:11;;;;;;;0.30;0.30;;;;;;;;;;6243150;28;20025;-83
2024/01/21 06:11:11;;;;;;;0.20;0.20;;;;;;;;;;6243629;28;20024;-83
2024/01/21 06:14:11;;;;;;;0.30;0.30;;;;;;;;;;6238895;28;20796;-84
2024/01/21 06:17:12;;;;;;;0.20;0.20;;;;;;;;;;6230723;28;20022;-82
2024/01/21 06:20:12;;;;;;;0.20;0.20;;;;;;;;;;6241400;28;20020;-83
2024/01/21 06:23:12;;;;;;;0.20;0.20;;;;;;;;;;6239760;28;20029;-83
2024/01/21 06:26:19;;;;;;;0.30;0.30;;;;;;;;;;6239198;28;20021;-84
2024/01/21 06:29:20;;;;;;;0.20;0.20;;;;;;;;;;6243142;28;20022;-81
2024/01/21 06:32:20;;;;;;;0.20;0.20;;;;;;;;;;6243071;28;20044;-81
2024/01/21 06:35:20;;;;;;;0.20;0.20;;;;;;;;;;6239279;28;20021;-77
2024/01/21 06:38:20;;;;;;;0.30;0.30;;;;;;;;;;6243577;28;20034;-78
2024/01/21 06:41:21;;;;;;;0.20;0.20;;;;;;;;;;6233789;28;20021;-79
2024/01/21 06:44:21;;;;;;;0.20;0.20;;;;;;;;;;6235767;28;20025;-79
2024/01/21 06:47:22;;;;;;;0.30;0.30;;;;;;;;;;6243371;28;20045;-79
2024/01/21 06:50:22;;;;;;;0.30;0.30;;;;;;;;;;6229049;28;20022;-79
2024/01/21 06:53:22;;;;;;;0.30;0.30;;;;;;;;;;6221897;28;20076;-79
2024/01/21 06:56:22;;;;;;;0.30;0.30;;;;;;;;;;6242043;28;20021;-79
2024/01/21 06:59:23;;;;;;;0.30;0.30;;;;;;;;;;6239154;28;20562;-79
2024/01/21 07:02:23;;;;;;;0.30;0.30;;;;;;;;;;6237738;28;20037;-79
2024/01/21 07:05:23;;;;;;;0.30;0.30;;;;;;;;;;6241728;28;20028;-79
2024/01/21 07:08:23;;;;;;;0.20;0.20;;;;;;;;;;6237336;28;20768;-79
2024/01/21 07:11:25;;;;;;;0.20;0.20;;;;;;;;;;6221419;28;20387;-79
2024/01/21 07:14:26;;;;;;;0.30;0.30;;;;;;;;;;6233581;28;20033;-79
2024/01/21 07:17:26;;;;;;;0.30;0.30;;;;;;;;;;6223413;28;20486;-81
2024/01/21 07:20:26;;;;;;;0.30;0.30;;;;;;;;;;6239480;28;20017;-82
2024/01/21 07:23:26;;;;;;;0.20;0.20;;;;;;;;;;6233429;28;20029;-81
2024/01/21 07:26:27;;;;;;;0.20;0.20;;;;;;;;;;6228374;28;20036;-81
2024/01/21 07:29:28;;;;;;;0.30;0.30;;;;;;;;;;6238909;28;20014;-82
2024/01/21 07:32:28;;;;;;;0.30;0.30;;;;;;;;;;6235505;28;20140;-82
2024/01/21 07:35:28;;;;;;;0.20;0.20;;;;;;;;;;6227235;28;20075;-82
2024/01/21 07:38:29;;;;;;;0.20;0.20;;;;;;;;;;6240371;28;20026;-82
2024/01/21 07:41:29;;;;;;;0.20;0.20;;;;;;;;;;6237743;28;20519;-82
2024/01/21 07:44:29;;;;;;;0.30;0.30;;;;;;;;;;6222575;28;20033;-82
2024/01/21 07:47:30;;;;;;;0.20;0.20;;;;;;;;;;6209559;28;20045;-79
2024/01/21 07:50:30;;;;;;;0.20;0.20;;;;;;;;;;6203520;28;20032;-79
2024/01/21 07:53:30;;;;;;;0.20;0.20;;;;;;;;;;6211417;28;20455;-78
2024/01/21 07:56:30;;;;;;;0.20;0.20;;;;;;;;;;6220567;28;20037;-79
2024/01/21 07:59:31;;;;;;;0.20;0.20;;;;;;;;;;6207263;28;20061;-80
2024/01/21 08:02:31;;;;;;;0.30;0.30;;;;;;;;;;6209998;28;20496;-79
2024/01/21 08:05:33;;;;;;;0.20;0.20;;;;;;;;;;6209927;28;20574;-79
2024/01/21 08:08:33;;;;;;;;;;;;;;;;;;6234242;28;20109;-79
2024/01/21 08:11:33;;;;;;;0.20;0.20;;;;;;;;;;6227079;28;19917;-79
2024/01/21 08:14:33;;;;;;;0.20;0.20;;;;;;;;;;6229047;28;20388;-80
2024/01/21 08:17:34;;;;;;;0.20;0.20;;;;;;;;;;6191999;28;20026;-80
2024/01/21 08:20:34;;;;;;;0.20;0.20;;;;;;;;;;6206193;28;20110;-80
2024/01/21 08:23:35;;;;;;;0.20;0.20;;;;;;;;;;6212650;28;20025;-80
2024/01/21 08:26:35;;;;;;;0.20;0.20;;;;;;;;;;6185910;28;20477;-84
2024/01/21 08:29:37;;;;;;;0.30;0.30;;;;;;;;;;6216528;28;20029;-84
2024/01/21 08:32:38;;;;;;;0.20;0.20;;;;;;;;;;6175739;28;20475;-83
2024/01/21 08:35:39;;;;;;;0.20;0.20;;;;;;;;;;6209793;28;20033;-83
2024/01/21 08:38:40;;;;;;;0.28;0.28;;;;;;;;;;6224036;28;20029;-83
2024/01/21 08:41:40;;;;;;;0.20;0.20;;;;;;;;;;6220928;28;20037;-83
2024/01/21 08:44:40;;;;;;;0.20;0.20;;;;;;;;;;6208521;28;20480;-83
2024/01/21 08:47:40;;;;;;;0.20;0.20;;;;;;;;;;6228916;28;20053;-83
2024/01/21 08:50:41;;;;;;;0.20;0.20;;;;;;;;;;6221483;28;20104;-83
2024/01/21 08:53:42;;;;;;;0.30;0.30;;;;;;;;;;6245070;28;20024;-83
2024/01/21 08:56:42;;;;;;;0.20;0.20;;;;;;;;;;6244664;28;20013;-79
2024/01/21 08:59:43;;;;;;;0.20;0.20;;;;;;;;;;6245230;28;20052;-79
2024/01/21 09:02:43;;;;;;;0.20;0.20;;;;;;;;;;6244944;28;20071;-79
2024/01/21 09:05:43;;;;;;;0.20;0.20;;;;;;;;;;6230438;28;20037;-79
2024/01/21 09:08:43;;;;;;;0.20;0.20;;;;;;;;;;6245309;28;20025;-78
2024/01/21 09:11:44;;;;;;;0.20;0.20;;;;;;;;;;6244742;28;20213;-78
2024/01/21 09:14:44;;;;;;;0.20;0.20;;;;;;;;;;6244732;28;20026;-79
2024/01/21 09:17:44;;;;;;;0.20;0.20;;;;;;;;;;6244243;28;20029;-76
2024/01/21 09:20:45;;;;;;;0.20;0.20;;;;;;;;;;6227116;28;20495;-76
2024/01/21 09:23:45;;;;;;;0.20;0.20;;;;;;;;;;6244528;28;20016;-76
2024/01/21 09:26:45;;;;;;;0.20;0.20;;;;;;;;;;6226640;28;20021;-76
2024/01/21 09:29:45;;;;;;;0.20;0.20;;;;;;;;;;6244186;28;20021;-76
2024/01/21 09:32:46;;;;;;;0.20;0.20;;;;;;;;;;6241284;28;20115;-75
2024/01/21 09:35:49;;;;;;;0.20;0.20;;;;;;;;;;6235347;28;20021;-75
2024/01/21 09:38:51;;;;;;;0.20;0.20;;;;;;;;;;6217963;28;20022;-76
2024/01/21 09:41:52;;;;;;;0.20;0.20;;;;;;;;;;6240004;28;20057;-75
2024/01/21 09:44:52;;;;;;;0.20;0.20;;;;;;;;;;6224956;28;20888;-74
2024/01/21 09:47:54;;;;;;;0.20;0.20;;;;;;;;;;6234447;28;20088;-75
2024/01/21 09:50:55;;;;;;;0.20;0.20;;;;;;;;;;6235222;28;20127;-75
2024/01/21 09:53:56;;;;;;;0.20;0.20;;;;;;;;;;6246972;28;20371;-75
2024/01/21 09:56:56;;;;;;;0.20;0.20;;;;;;;;;;6247488;28;20030;-74
2024/01/21 09:59:56;;;;;;;0.20;0.20;;;;;;;;;;6255102;28;20527;-74
2024/01/21 10:02:56;;;;;;;0.20;0.20;;;;;;;;;;6244282;28;20460;-74
2024/01/21 10:05:57;;;;;;;0.20;0.20;;;;;;;;;;6237342;28;20502;-79
2024/01/21 10:09:14;;;;;;;0.20;0.20;;;;;;;;;;6243149;28;20737;-79
2024/01/21 10:12:17;;;;;;;0.20;0.20;;;;;;;;;;6242371;28;20120;-79
2024/01/21 10:15:18;;;;;;;0.20;0.20;;;;;;;;;;6234280;28;20030;-79
2024/01/21 10:18:18;;;;;;;0.20;0.20;;;;;;;;;;6240122;28;20526;-79
2024/01/21 10:21:19;;;;;;;0.20;0.20;;;;;;;;;;6238593;28;20496;-79
2024/01/21 10:24:22;;;;;;;0.20;0.20;;;;;;;;;;6233501;28;20048;-79
2024/01/21 10:27:22;;;;;;;0.20;0.20;;;;;;;;;;6238326;28;20037;-79
2024/01/21 10:30:22;;;;;;;0.20;0.20;;;;;;;;;;6204852;28;20388;-80
2024/01/21 10:33:24;;;;;;;0.20;0.20;;;;;;;;;;6239707;28;20033;-79
2024/01/21 10:36:25;;;;;;;0.20;0.20;;;;;;;;;;6243388;28;20151;-79
2024/01/21 10:39:26;;;;;;;0.20;0.20;;;;;;;;;;6240531;28;20408;-79
2024/01/21 10:42:27;;;;;;;0.20;0.20;;;;;;;;;;6206628;28;20061;-79
2024/01/21 10:45:28;;;;;;;0.20;0.20;;;;;;;;;;6241197;28;20468;-79
2024/01/21 10:48:29;;;;;;;0.20;0.20;;;;;;;;;;6232705;28;20054;-79
2024/01/21 10:51:29;;;;;;;0.20;0.20;;;;;;;;;;6225858;28;20468;-80
2024/01/21 10:54:30;;;;;;;0.13;0.13;;;;;;;;;;6234070;28;20511;-79
2024/01/21 10:57:30;;;;;;;0.20;0.20;;;;;;;;;;6244394;28;20020;-79
2024/01/21 11:00:31;;;;;;;0.10;0.10;;;;;;;;;;6230439;28;20025;-79
2024/01/21 11:03:33;;;;;;;0.10;0.10;;;;;;;;;;6233094;28;20160;-79
2024/01/21 11:06:34;;;;;;;0.20;0.20;;;;;;;;;;6227569;28;20526;-79
2024/01/21 11:09:36;;;;;;;0.20;0.20;;;;;;;;;;6241698;28;20151;-79
2024/01/21 11:12:37;;;;;;;0.10;0.10;;;;;;;;;;6241182;28;20048;-79
2024/01/21 11:15:46;;;;;;;0.20;0.20;;;;;;;;;;6221358;28;20029;-79
2024/01/21 11:18:46;;;;;;;0.20;0.20;;;;;;;;;;6244061;28;20022;-79
2024/01/21 11:21:48;;;;;;;0.20;0.20;;;;;;;;;;6253855;28;20014;-79
2024/01/21 11:24:48;;;;;;;0.20;0.20;;;;;;;;;;6242112;28;20056;-78
2024/01/21 11:27:48;;;;;;;0.20;0.20;;;;;;;;;;6241290;28;20035;-79
2024/01/21 11:30:53;;;;;;;0.20;0.20;;;;;;;;;;6241548;28;20065;-79
2024/01/21 11:34:03;;;;;;;0.20;0.20;;;;;;;;;;6243277;28;20025;-78
2024/01/21 11:37:04;;;;;;;0.20;0.20;;;;;;;;;;6224343;28;20021;-79
2024/01/21 11:40:06;;;;;;;0.20;0.20;;;;;;;;;;6241862;28;20025;-78
2024/01/21 11:43:06;;;;;;;0.20;0.20;;;;;;;;;;6240785;28;20025;-79
2024/01/21 11:46:06;;;;;;;0.20;0.20;;;;;;;;;;6241747;28;20072;-78
2024/01/21 11:49:07;;;;;;;0.10;0.10;;;;;;;;;;6241386;28;20054;-78
2024/01/21 11:52:08;;;;;;;0.20;0.20;;;;;;;;;;6242101;28;20022;-77
2024/01/21 11:55:08;;;;;;;0.20;0.20;;;;;;;;;;6234576;28;21183;-78
2024/01/21 11:58:08;;;;;;;0.20;0.20;;;;;;;;;;6235884;28;20384;-77
2024/01/21 12:01:09;;;;;;;0.10;0.10;;;;;;;;;;6241214;28;20514;-77
2024/01/21 12:04:10;;;;;;;0.13;0.13;;;;;;;;;;6219598;28;20014;-77
2024/01/21 12:07:10;;;;;;;0.10;0.10;;;;;;;;;;6240054;28;20411;-77
2024/01/21 12:10:11;;;;;;;0.17;0.17;;;;;;;;;;6246638;28;20018;-77
2024/01/21 12:13:11;;;;;;;0.20;0.20;;;;;;;;;;6246164;28;20041;-77
2024/01/21 12:16:11;;;;;;;0.10;0.10;;;;;;;;;;6259615;28;20384;-77
2024/01/21 12:19:12;;;;;;;0.20;0.20;;;;;;;;;;6245799;28;20014;-77
2024/01/21 12:22:14;;;;;;;0.10;0.10;;;;;;;;;;6245560;28;20021;-78
2024/01/21 12:25:16;;;;;;;0.20;0.20;;;;;;;;;;6246647;28;20387;-76
2024/01/21 12:28:17;;;;;;;0.20;0.20;;;;;;;;;;6232051;28;20116;-76
2024/01/21 12:31:17;;;;;;;0.10;0.10;;;;;;;;;;6246096;28;20041;-76
2024/01/21 12:34:20;;;;;;;0.20;0.20;;;;;;;;;;6245479;28;20450;-76
2024/01/21 12:37:20;;;;;;;0.10;0.10;;;;;;;;;;6227412;28;20183;-75
2024/01/21 12:40:20;;;;;;;0.10;0.10;;;;;;;;;;6245682;28;20018;-76
2024/01/21 12:43:21;;;;;;;0.10;0.10;;;;;;;;;;6245447;28;20489;-76
2024/01/21 12:46:21;;;;;;;0.10;0.10;;;;;;;;;;6245439;28;20101;-76
2024/01/21 12:49:22;;;;;;;0.10;0.10;;;;;;;;;;6245088;28;20479;-76
2024/01/21 12:52:22;;;;;;;0.10;0.10;;;;;;;;;;6228940;28;20032;-76
2024/01/21 12:55:22;;;;;;;0.10;0.10;;;;;;;;;;6231242;28;20032;-76
2024/01/21 12:58:22;;;;;;;0.10;0.10;;;;;;;;;;6245785;28;20048;-76
2024/01/21 13:01:23;;;;;;;0.13;0.13;;;;;;;;;;6245046;28;20021;-76
2024/01/21 13:04:23;;;;;;;0.10;0.10;;;;;;;;;;6244510;28;20025;-77
2024/01/21 13:07:24;;;;;;;0.10;0.10;;;;;;;;;;6247895;28;20027;-80
2024/01/21 13:10:24;;;;;;;0.10;0.10;;;;;;;;;;6245138;28;20107;-79
2024/01/21 13:13:25;;;;;;;0.13;0.13;;;;;;;;;;6243805;28;20149;-79
2024/01/21 13:16:25;;;;;;;0.10;0.10;;;;;;;;;;6244873;28;20036;-79
2024/01/21 13:19:26;;;;;;;0.10;0.10;;;;;;;;;;6244171;28;20471;-79
2024/01/21 13:22:26;;;;;;;0.10;0.10;;;;;;;;;;6236678;28;20404;-79
2024/01/21 13:25:26;;;;;;;0.20;0.20;;;;;;;;;;6242950;28;20024;-79
2024/01/21 13:31:27;;;;;;;0.10;0.10;;;;;;;;;;6233961;28;20030;-80
2024/01/21 13:34:28;;;;;;;0.10;0.10;;;;;;;;;;6238973;28;20021;-80
2024/01/21 13:37:28;;;;;;;0.10;0.10;;;;;;;;;;6229286;28;20018;-78
2024/01/21 13:40:29;;;;;;;0.20;0.20;;;;;;;;;;6233189;28;20017;-78
2024/01/21 13:43:29;;;;;;;0.10;0.10;;;;;;;;;;6242692;28;20102;-78
2024/01/21 13:46:29;;;;;;;0.10;0.10;;;;;;;;;;6229603;28;20202;-77
2024/01/21 13:49:29;;;;;;;0.17;0.17;;;;;;;;;;6243038;28;20048;-77
2024/01/21 13:52:30;;;;;;;0.13;0.13;;;;;;;;;;6243649;28;20112;-77
2024/01/21 13:55:30;;;;;;;0.10;0.10;;;;;;;;;;6232788;28;20131;-77
2024/01/21 13:58:31;;;;;;;0.20;0.20;;;;;;;;;;6240523;28;20025;-77
2024/01/21 14:01:31;;;;;;;0.17;0.17;;;;;;;;;;6243012;28;20527;-77
2024/01/21 14:04:31;;;;;;;0.10;0.10;;;;;;;;;;6243736;28;20017;-77
2024/01/21 14:07:31;;;;;;;0.10;0.10;;;;;;;;;;6243453;28;20408;-77
2024/01/21 14:10:32;;;;;;;0.20;0.20;;;;;;;;;;6243533;28;20018;-77
2024/01/21 14:13:32;;;;;;;0.20;0.20;;;;;;;;;;6240499;28;20392;-77
2024/01/21 14:16:32;;;;;;;0.20;0.20;;;;;;;;;;6244102;28;20079;-77
2024/01/21 14:19:34;;;;;;;0.20;0.20;;;;;;;;;;6257672;28;20383;-77
2024/01/21 14:22:34;;;;;;;0.10;0.10;;;;;;;;;;6243703;28;20018;-76
2024/01/21 14:25:39;;;;;;;0.10;0.10;;;;;;;;;;6243627;28;20036;-76
2024/01/21 14:28:41;;;;;;;0.20;0.20;;;;;;;;;;6243215;28;20021;-77
2024/01/21 14:31:42;;;;;;;0.10;0.10;;;;;;;;;;6229281;28;20061;-77
2024/01/21 14:34:42;;;;;;;0.20;0.20;;;;;;;;;;6242991;28;20422;-77
2024/01/21 14:37:42;;;;;;;0.10;0.10;;;;;;;;;;6243305;28;20041;-77
2024/01/21 14:40:43;;;;;;;0.20;0.20;;;;;;;;;;6242502;28;20384;-76
2024/01/21 14:43:43;;;;;;;0.10;0.10;;;;;;;;;;6243175;28;20022;-77
2024/01/21 14:46:44;;;;;;;0.20;0.20;;;;;;;;;;6220904;28;20050;-86
2024/01/21 14:49:44;;;;;;;0.20;0.20;;;;;;;;;;6217941;28;20025;-86
2024/01/21 14:52:46;;;;;;;0.20;0.20;;;;;;;;;;6216389;28;20045;-86
2024/01/21 14:55:46;;;;;;;0.20;0.20;;;;;;;;;;6210295;28;20784;-86
2024/01/21 14:58:50;;;;;;;0.20;0.20;;;;;;;;;;6200421;28;20053;-87
2024/01/21 15:01:51;;;;;;;0.20;0.20;;;;;;;;;;6230532;28;20072;-87
2024/01/21 15:04:51;;;;;;;0.20;0.20;;;;;;;;;;6219719;28;20476;-87
2024/01/21 15:07:51;;;;;;;0.20;0.20;;;;;;;;;;6218124;28;20093;-88
2024/01/21 15:10:51;;;;;;;0.20;0.20;;;;;;;;;;6218054;28;20022;-87
2024/01/21 15:13:52;;;;;;;0.20;0.20;;;;;;;;;;6222784;28;20025;-87
2024/01/21 15:16:52;;;;;;;0.20;0.20;;;;;;;;;;6227425;28;20630;-88
2024/01/21 15:19:52;;;;;;;0.20;0.20;;;;;;;;;;6200465;28;20048;-88
2024/01/21 15:22:52;;;;;;;0.20;0.20;;;;;;;;;;6200168;28;20025;-88
2024/01/21 15:25:54;;;;;;;0.20;0.20;;;;;;;;;;6217452;28;20037;-88
2024/01/21 15:28:54;;;;;;;0.20;0.20;;;;;;;;;;6217485;28;20022;-88
2024/01/21 15:31:56;;;;;;;0.20;0.20;;;;;;;;;;6218101;28;20021;-88
2024/01/21 15:34:56;;;;;;;0.30;0.30;;;;;;;;;;6199623;28;20040;-88
2024/01/21 15:37:56;;;;;;;0.20;0.20;;;;;;;;;;6199758;28;20018;-88
2024/01/21 15:40:56;;;;;;;0.20;0.20;;;;;;;;;;6217335;28;20134;-88
2024/01/21 15:43:56;;;;;;;0.20;0.20;;;;;;;;;;6204218;28;20018;-88
2024/01/21 15:46:57;;;;;;;0.20;0.20;;;;;;;;;;6222663;28;20053;-88
2024/01/21 15:49:57;;;;;;;0.20;0.20;;;;;;;;;;6227526;28;20036;-90
2024/01/21 15:52:58;;;;;;;0.20;0.20;;;;;;;;;;6217469;28;20471;-90
2024/01/21 15:55:58;;;;;;;0.20;0.20;;;;;;;;;;6207482;28;20552;-90
2024/01/21 15:59:00;;;;;;;0.20;0.20;;;;;;;;;;6227488;28;20049;-90
2024/01/21 16:02:00;;;;;;;;;;;;;;;;;;6219692;28;20165;-90
2024/01/21 16:05:00;;;;;;;0.20;0.20;;;;;;;;;;6207621;28;20288;-91
2024/01/21 16:08:01;;;;;;;0.20;0.20;;;;;;;;;;6209032;28;20264;-91
2024/01/21 16:11:02;;;;;;;0.20;0.20;;;;;;;;;;6192155;28;20113;-90
2024/01/21 16:14:02;;;;;;;0.20;0.20;;;;;;;;;;6216739;28;20113;-91
2024/01/21 16:17:03;;;;;;;0.20;0.20;;;;;;;;;;6212695;28;20513;-92
2024/01/21 16:20:04;;;;;;;0.20;0.20;;;;;;;;;;6193695;28;20038;-92
2024/01/21 16:23:04;;;;;;;0.20;0.20;;;;;;;;;;6223159;28;20529;-92
2024/01/21 16:26:04;;;;;;;0.20;0.20;;;;;;;;;;6209884;28;20030;-92
2024/01/21 16:29:05;;;;;;;0.20;0.20;;;;;;;;;;6213181;28;20032;-92
2024/01/21 16:32:05;;;;;;;0.30;0.30;;;;;;;;;;6196995;28;20034;-91
2024/01/21 16:35:06;;;;;;;0.20;0.20;;;;;;;;;;6211635;28;20112;-90
2024/01/21 16:38:07;;;;;;;0.20;0.20;;;;;;;;;;6206660;28;20023;-91
2024/01/21 16:41:08;;;;;;;0.20;0.20;;;;;;;;;;6213515;28;20033;-91
2024/01/21 16:44:08;;;;;;;0.20;0.20;;;;;;;;;;6197882;28;20038;-91
2024/01/21 16:47:09;;;;;;;0.20;0.20;;;;;;;;;;6221257;28;20038;-90
2024/01/21 16:50:09;;;;;;;0.30;0.30;;;;;;;;;;6220375;28;20028;-91
2024/01/21 16:53:14;;;;;;;0.20;0.20;;;;;;;;;;6201599;28;20018;-90
2024/01/21 16:56:14;;;;;;;0.20;0.20;;;;;;;;;;6222747;28;20026;-92
2024/01/21 16:59:16;;;;;;;0.20;0.20;;;;;;;;;;6219058;28;20037;-91
2024/01/21 17:02:19;;;;;;;0.30;0.30;;;;;;;;;;6214216;28;20024;-93
2024/01/21 17:05:20;;;;;;;0.28;0.28;;;;;;;;;;6212495;28;20022;-74
2024/01/21 17:08:21;;;;;;;0.20;0.20;;;;;;;;;;6211742;28;20040;-73
2024/01/21 17:11:23;;;;;;;0.30;0.30;;;;;;;;;;6217637;28;20037;-73
2024/01/21 17:14:24;;;;;;;0.20;0.20;;;;;;;;;;6219528;28;20026;-73
2024/01/21 17:17:24;;;;;;;0.20;0.20;;;;;;;;;;6219090;28;20387;-73
2024/01/21 17:20:24;;;;;;;0.30;0.30;;;;;;;;;;6219160;28;20022;-73
2024/01/21 17:23:24;;;;;;;0.30;0.30;;;;;;;;;;6217405;28;20030;-73
2024/01/21 17:26:26;;;;;;;0.30;0.30;;;;;;;;;;6217843;28;20551;-73
2024/01/21 17:29:26;;;;;;;0.30;0.30;;;;;;;;;;6210571;28;20019;-73
2024/01/21 17:32:26;;;;;;;0.30;0.30;;;;;;;;;;6213702;28;20033;-73
2024/01/21 17:35:26;;;;;;;0.20;0.20;;;;;;;;;;6219284;28;20037;-73
2024/01/21 17:38:27;;;;;;;0.20;0.20;;;;;;;;;;6218745;28;20026;-73
2024/01/21 17:41:27;;;;;;;0.30;0.30;;;;;;;;;;6206546;28;20040;-73
2024/01/21 17:44:27;;;;;;;0.30;0.30;;;;;;;;;;6216918;28;20049;-73
2024/01/21 17:47:27;;;;;;;0.20;0.20;;;;;;;;;;6214396;28;20050;-89
2024/01/21 17:50:28;;;;;;;0.20;0.20;;;;;;;;;;6214681;28;20037;-89
2024/01/21 17:53:28;;;;;;;0.20;0.20;;;;;;;;;;6230959;28;20030;-89
2024/01/21 17:56:29;;;;;;;0.23;0.23;;;;;;;;;;6220503;28;20038;-88
2024/01/21 17:59:30;;;;;;;0.20;0.20;;;;;;;;;;6218204;28;20025;-90
2024/01/21 18:02:30;;;;;;;0.30;0.30;;;;;;;;;;6219085;28;20380;-90
2024/01/21 18:05:30;;;;;;;0.20;0.20;;;;;;;;;;6206549;28;20117;-89